createdAt,value
2017-05-18T00:00:09.995Z,76.5
2017-05-18T00:01:32.548Z,76.94
2017-05-18T00:02:54.747Z,76.84
2017-05-18T00:04:16.884Z,76.69
2017-05-18T00:05:38.415Z,76.56
2017-05-18T00:06:59.932Z,76.84
2017-05-18T00:08:21.450Z,77.13
2017-05-18T00:09:43.278Z,77.23
2017-05-18T00:11:05.134Z,77.42
2017-05-18T00:12:26.648Z,77.33
2017-05-18T00:13:48.496Z,76.84
2017-05-18T00:15:10.647Z,76.84
2017-05-18T00:16:32.789Z,77.23
2017-05-18T00:17:54.937Z,76.65
2017-05-18T00:19:16.769Z,76.84
2017-05-18T00:20:39.277Z,76.46
2017-05-18T00:22:01.113Z,76.36
2017-05-18T00:23:22.338Z,76.36
2017-05-18T00:24:44.179Z,76.46
2017-05-18T00:26:06.306Z,76.94
2017-05-18T00:27:27.819Z,76.46
2017-05-18T00:28:50.286Z,76.26
2017-05-18T00:30:12.269Z,76.56
2017-05-18T00:31:34.447Z,76.75
2017-05-18T00:32:56.293Z,77.13
2017-05-18T00:34:18.468Z,77.13
2017-05-18T00:35:39.677Z,76.84
2017-05-18T00:37:02.469Z,77.04
2017-05-18T00:38:23.982Z,77.04
2017-05-18T00:39:46.180Z,76.84
2017-05-18T00:41:08.375Z,77.33
2017-05-18T00:42:30.239Z,76.94
2017-05-18T00:43:52.399Z,77.23
2017-05-18T00:45:14.597Z,77.71
2017-05-18T00:46:36.117Z,77.51
2017-05-18T00:47:58.403Z,77.33
2017-05-18T00:49:20.239Z,76.94
2017-05-18T00:50:41.519Z,77.42
2017-05-18T00:52:02.804Z,77.42
2017-05-18T00:53:25.076Z,77.51
2017-05-18T00:54:46.918Z,77.61
2017-05-18T00:56:09.119Z,78.38
2017-05-18T00:57:30.651Z,78.48
2017-05-18T00:58:52.838Z,78.15
2017-05-18T01:00:14.667Z,78.73
2017-05-18T01:01:36.848Z,78.73
2017-05-18T01:02:59.109Z,78.53
2017-05-18T01:04:21.230Z,78.73
2017-05-18T01:05:42.424Z,78.83
2017-05-18T01:07:04.269Z,78.53
2017-05-18T01:08:26.225Z,78.83
2017-05-18T01:09:49.217Z,78.53
2017-05-18T01:11:11.428Z,78.34
2017-05-18T01:12:32.648Z,78.92
2017-05-18T01:13:54.855Z,79.02
2017-05-18T01:15:17.319Z,78.83
2017-05-18T01:16:39.149Z,78.83
2017-05-18T01:18:01.286Z,78.83
2017-05-18T01:19:23.786Z,78.92
2017-05-18T01:20:46.248Z,79.4
2017-05-18T01:22:08.106Z,79.3
2017-05-18T01:23:29.619Z,78.63
2017-05-18T01:24:50.829Z,79.02
2017-05-18T01:26:12.660Z,79.21
2017-05-18T01:27:34.800Z,79.3
2017-05-18T01:28:57.280Z,78.92
2017-05-18T01:30:19.859Z,79.11
2017-05-18T01:31:42.043Z,79.11
2017-05-18T01:33:03.579Z,79.69
2017-05-18T01:34:25.761Z,79.69
2017-05-18T01:35:48.249Z,79.3
2017-05-18T01:37:10.371Z,79.21
2017-05-18T01:38:32.218Z,78.83
2017-05-18T01:39:53.745Z,79.02
2017-05-18T01:41:16.239Z,79.21
2017-05-18T01:42:38.089Z,79.3
2017-05-18T01:43:59.618Z,79.69
2017-05-18T01:45:21.508Z,79.69
2017-05-18T01:46:43.042Z,79.11
2017-05-18T01:48:05.252Z,79.69
2017-05-18T01:49:26.886Z,79.4
2017-05-18T01:50:49.059Z,80.07
2017-05-18T01:52:10.600Z,79.98
2017-05-18T01:53:32.789Z,79.88
2017-05-18T01:54:54.961Z,79.79
2017-05-18T01:56:17.120Z,80.65
2017-05-18T01:57:39.274Z,80.46
2017-05-18T01:59:01.559Z,80.55
2017-05-18T02:00:23.396Z,80.22
2017-05-18T02:01:45.279Z,81.04
2017-05-18T02:03:07.738Z,81.04
2017-05-18T02:04:29.998Z,80.99
2017-05-18T02:05:51.600Z,80.8
2017-05-18T02:07:12.799Z,81.09
2017-05-18T02:08:34.936Z,81.19
2017-05-18T02:09:57.375Z,81.09
2017-05-18T02:11:19.538Z,81.19
2017-05-18T02:12:41.685Z,81.28
2017-05-18T02:14:03.201Z,81.28
2017-05-18T02:15:25.091Z,80.99
2017-05-18T02:16:46.930Z,81.48
2017-05-18T02:18:08.770Z,81.38
2017-05-18T02:19:29.718Z,81.48
2017-05-18T02:20:51.492Z,81.38
2017-05-18T02:22:13.409Z,81.19
2017-05-18T02:23:35.585Z,81.19
2017-05-18T02:24:57.110Z,81.09
2017-05-18T02:26:19.300Z,81.76
2017-05-18T02:27:41.216Z,81.67
2017-05-18T02:29:03.389Z,81.86
2017-05-18T02:30:24.906Z,82.24
2017-05-18T02:31:46.767Z,82.24
2017-05-18T02:33:08.603Z,82.63
2017-05-18T02:34:30.492Z,82.73
2017-05-18T02:35:52.327Z,82.63
2017-05-18T02:37:14.821Z,83.11
2017-05-18T02:38:36.353Z,83.2
2017-05-18T02:39:58.252Z,82.82
2017-05-18T02:41:20.462Z,82.53
2017-05-18T02:42:42.558Z,82.53
2017-05-18T02:44:04.409Z,83.4
2017-05-18T02:45:26.247Z,82.82
2017-05-18T02:46:47.738Z,82.73
2017-05-18T02:48:10.280Z,82.34
2017-05-18T02:49:32.949Z,82.82
2017-05-18T02:50:54.470Z,82.63
2017-05-18T02:52:16.674Z,82.63
2017-05-18T02:53:38.811Z,82.82
2017-05-18T02:55:00.655Z,83.11
2017-05-18T02:56:22.619Z,83.11
2017-05-18T02:57:44.658Z,83.01
2017-05-18T02:59:06.795Z,83.11
2017-05-18T03:00:28.948Z,83.3
2017-05-18T03:01:51.090Z,83.59
2017-05-18T03:03:13.251Z,82.97
2017-05-18T03:04:35.076Z,83.78
2017-05-18T03:05:56.939Z,83.49
2017-05-18T03:07:18.807Z,83.49
2017-05-18T03:08:40.363Z,83.54
2017-05-18T03:10:02.201Z,83.74
2017-05-18T03:11:24.059Z,84.07
2017-05-18T03:12:46.616Z,83.93
2017-05-18T03:14:09.107Z,83.87
2017-05-18T03:15:31.267Z,84.51
2017-05-18T03:16:53.159Z,84.41
2017-05-18T03:18:15.057Z,84.22
2017-05-18T03:19:36.935Z,84.7
2017-05-18T03:20:59.177Z,84.7
2017-05-18T03:22:21.347Z,84.8
2017-05-18T03:23:43.280Z,84.8
2017-05-18T03:25:05.280Z,84.6
2017-05-18T03:26:27.116Z,84.6
2017-05-18T03:27:49.589Z,84.7
2017-05-18T03:29:11.428Z,84.6
2017-05-18T03:30:32.629Z,84.6
2017-05-18T03:31:55.170Z,85.37
2017-05-18T03:33:17.086Z,85.37
2017-05-18T03:34:38.623Z,84.8
2017-05-18T03:36:00.608Z,84.7
2017-05-18T03:37:22.752Z,84.7
2017-05-18T03:38:43.949Z,84.7
2017-05-18T03:40:06.421Z,84.31
2017-05-18T03:41:28.689Z,84.6
2017-05-18T03:42:50.448Z,84.12
2017-05-18T03:44:11.987Z,83.93
2017-05-18T03:45:33.875Z,84.03
2017-05-18T03:46:56.351Z,83.64
2017-05-18T03:48:18.484Z,83.69
2017-05-18T03:49:40.325Z,84.03
2017-05-18T03:51:02.198Z,84.07
2017-05-18T03:52:24.112Z,84.07
2017-05-18T03:53:46.258Z,83.97
2017-05-18T03:55:08.157Z,84.07
2017-05-18T03:56:29.996Z,83.49
2017-05-18T03:57:52.144Z,83.69
2017-05-18T03:59:13.779Z,83.78
2017-05-18T04:00:35.936Z,83.3
2017-05-18T04:01:57.770Z,83.4
2017-05-18T04:03:19.361Z,83.2
2017-05-18T04:04:41.569Z,83.01
2017-05-18T04:06:03.199Z,82.82
2017-05-18T04:07:25.171Z,82.92
2017-05-18T04:08:47.338Z,82.43
2017-05-18T04:10:09.799Z,82.19
2017-05-18T04:11:31.695Z,81.81
2017-05-18T04:12:53.215Z,81.81
2017-05-18T04:14:14.748Z,81.04
2017-05-18T04:15:36.924Z,81.52
2017-05-18T04:16:58.118Z,81.04
2017-05-18T04:18:19.700Z,80.94
2017-05-18T04:19:41.849Z,80.84
2017-05-18T04:21:04.518Z,80.27
2017-05-18T04:22:26.686Z,80.07
2017-05-18T04:23:48.535Z,80.02
2017-05-18T04:25:09.748Z,80.21
2017-05-18T04:26:32.209Z,80.21
2017-05-18T04:27:54.058Z,79.15
2017-05-18T04:29:15.909Z,79.05
2017-05-18T04:30:38.056Z,79.05
2017-05-18T04:32:00.944Z,78.67
2017-05-18T04:33:23.110Z,78.96
2017-05-18T04:34:45.146Z,78.48
2017-05-18T04:36:07.438Z,77.9
2017-05-18T04:37:29.955Z,78.03
2017-05-18T04:38:51.778Z,77.9
2017-05-18T04:40:13.297Z,77.94
2017-05-18T04:41:35.141Z,77.17
2017-05-18T04:42:57.282Z,76.78
2017-05-18T04:44:19.125Z,76.5
2017-05-18T04:45:41.008Z,76.11
2017-05-18T04:47:03.430Z,76.4
2017-05-18T04:48:25.578Z,75.76
2017-05-18T04:49:47.111Z,75.19
2017-05-18T04:51:08.648Z,75.09
2017-05-18T04:52:30.471Z,74.8
2017-05-18T04:53:52.948Z,73.94
2017-05-18T04:55:15.483Z,73.94
2017-05-18T04:56:37.386Z,73.49
2017-05-18T04:57:59.858Z,73.1
2017-05-18T04:59:22.308Z,72.53
2017-05-18T05:00:44.449Z,70.44
2017-05-18T05:02:06.287Z,65.59
2017-05-18T05:03:27.814Z,60.09
2017-05-18T05:04:50.325Z,54.91
2017-05-18T05:06:12.180Z,51.23
2017-05-18T05:07:34.048Z,48.1
2017-05-18T05:08:55.559Z,45.52
2017-05-18T05:10:17.808Z,43.71
2017-05-18T05:11:39.972Z,44.59
2017-05-18T05:13:01.814Z,45.28
2017-05-18T05:14:23.339Z,45.15
2017-05-18T05:15:45.525Z,44.59
2017-05-18T05:17:07.375Z,45.57
2017-05-18T05:18:29.229Z,47.56
2017-05-18T05:19:51.149Z,48.78
2017-05-18T05:21:13.878Z,48.85
2017-05-18T05:22:36.109Z,47.3
2017-05-18T05:23:58.021Z,45.6
2017-05-18T05:25:20.017Z,44.2
2017-05-18T05:26:42.003Z,41.32
2017-05-18T05:28:04.174Z,40.39
2017-05-18T05:29:25.705Z,38.96
2017-05-18T05:30:47.558Z,38.2
2017-05-18T05:32:09.672Z,37.52
2017-05-18T05:33:31.825Z,37.16
2017-05-18T05:34:53.697Z,36.67
2017-05-18T05:36:15.868Z,35.69
2017-05-18T05:37:38.798Z,35.13
2017-05-18T05:39:00.670Z,35.91
2017-05-18T05:40:22.849Z,37.47
2017-05-18T05:41:44.385Z,40.63
2017-05-18T05:43:06.873Z,43.54
2017-05-18T05:44:28.472Z,43.5
2017-05-18T05:45:50.658Z,43.52
2017-05-18T05:47:12.507Z,44.4
2017-05-18T05:48:34.330Z,46.57
2017-05-18T05:49:56.810Z,47.59
2017-05-18T05:51:19.309Z,48.66
2017-05-18T05:52:41.158Z,46.62
2017-05-18T05:54:03.376Z,44.24
2017-05-18T05:55:25.270Z,40.42
2017-05-18T05:56:47.121Z,36.9
2017-05-18T05:58:09.391Z,32.7
2017-05-18T05:59:31.491Z,29.75
2017-05-18T06:00:53.650Z,28.23
2017-05-18T06:02:16.138Z,26.99
2017-05-18T06:03:37.699Z,26.9
2017-05-18T06:04:59.852Z,25.73
2017-05-18T06:06:21.159Z,25.15
2017-05-18T06:07:43.033Z,26.9
2017-05-18T06:09:05.272Z,27.95
2017-05-18T06:10:27.745Z,29.59
2017-05-18T06:11:50.232Z,29.3
2017-05-18T06:13:12.838Z,28.41
2017-05-18T06:14:34.378Z,28.12
2017-05-18T06:15:57.171Z,26.97
2017-05-18T06:17:19.018Z,27.57
2017-05-18T06:18:40.558Z,29.11
2017-05-18T06:20:02.114Z,29.68
2017-05-18T06:21:24.679Z,30.25
2017-05-18T06:22:46.886Z,31.6
2017-05-18T06:24:08.827Z,33.72
2017-05-18T06:25:29.855Z,33.97
2017-05-18T06:26:52.652Z,30.87
2017-05-18T06:28:14.616Z,30.25
2017-05-18T06:29:36.946Z,29.58
2017-05-18T06:30:58.798Z,27.08
2017-05-18T06:32:20.947Z,25.03
2017-05-18T06:33:42.798Z,22.93
2017-05-18T06:35:04.671Z,21.69
2017-05-18T06:36:26.529Z,21.41
2017-05-18T06:37:49.070Z,20.92
2017-05-18T06:39:10.947Z,19.35
2017-05-18T06:40:32.938Z,17.42
2017-05-18T06:41:54.794Z,19.18
2017-05-18T06:43:16.679Z,19.37
2017-05-18T06:44:38.847Z,19.16
2017-05-18T06:46:00.709Z,19.27
2017-05-18T06:47:22.576Z,18.6
2017-05-18T06:48:44.689Z,17.72
2017-05-18T06:50:06.551Z,17.52
2017-05-18T06:51:28.397Z,18.02
2017-05-18T06:52:50.568Z,17.13
2017-05-18T06:54:13.123Z,17.13
2017-05-18T06:55:35.397Z,17.05
2017-05-18T06:56:57.238Z,16.06
2017-05-18T06:58:19.238Z,16.07
2017-05-18T06:59:40.909Z,15.77
2017-05-18T07:01:02.508Z,16.66
2017-05-18T07:02:24.106Z,16.44
2017-05-18T07:03:45.672Z,17.13
2017-05-18T07:05:07.880Z,16.34
2017-05-18T07:06:29.769Z,16.44
2017-05-18T07:07:52.057Z,16.75
2017-05-18T07:09:13.915Z,16.55
2017-05-18T07:10:35.478Z,16.25
2017-05-18T07:11:57.974Z,16.36
2017-05-18T07:13:19.508Z,15.77
2017-05-18T07:14:41.708Z,15.86
2017-05-18T07:16:03.619Z,15.86
2017-05-18T07:17:25.909Z,16.25
2017-05-18T07:18:47.801Z,15.94
2017-05-18T07:20:09.760Z,15.95
2017-05-18T07:21:31.963Z,16.54
2017-05-18T07:22:53.838Z,16.34
2017-05-18T07:24:16.358Z,16.24
2017-05-18T07:25:38.548Z,16.52
2017-05-18T07:27:00.402Z,16.93
2017-05-18T07:28:21.951Z,16.31
2017-05-18T07:29:43.500Z,16.03
2017-05-18T07:31:05.995Z,16.94
2017-05-18T07:32:28.212Z,16.24
2017-05-18T07:33:49.748Z,16.63
2017-05-18T07:35:10.988Z,17.13
2017-05-18T07:36:33.189Z,16.64
2017-05-18T07:37:55.810Z,16.05
2017-05-18T07:39:17.988Z,15.74
2017-05-18T07:40:39.854Z,15.85
2017-05-18T07:42:01.405Z,16.04
2017-05-18T07:43:23.040Z,15.95
2017-05-18T07:44:45.278Z,16.44
2017-05-18T07:46:07.049Z,16.83
2017-05-18T07:47:28.598Z,17.62
2017-05-18T07:48:50.880Z,18
2017-05-18T07:50:12.738Z,18.87
2017-05-18T07:51:35.348Z,18.66
2017-05-18T07:52:57.520Z,19.37
2017-05-18T07:54:19.968Z,19.17
2017-05-18T07:55:42.448Z,19.46
2017-05-18T07:57:04.377Z,19.45
2017-05-18T07:58:25.956Z,20.7
2017-05-18T07:59:48.182Z,21
2017-05-18T08:01:10.197Z,21.08
2017-05-18T08:02:32.377Z,21.37
2017-05-18T08:03:53.911Z,22.85
2017-05-18T08:05:16.437Z,23.93
2017-05-18T08:06:37.974Z,25.07
2017-05-18T08:07:59.587Z,27.47
2017-05-18T08:09:21.597Z,29.69
2017-05-18T08:10:43.180Z,32.2
2017-05-18T08:12:05.358Z,33.61
2017-05-18T08:13:27.611Z,35.85
2017-05-18T08:14:50.004Z,36.67
2017-05-18T08:16:12.796Z,38.69
2017-05-18T08:17:34.679Z,40.29
2017-05-18T08:18:56.648Z,41.25
2017-05-18T08:20:19.156Z,42.57
2017-05-18T08:21:41.630Z,43.43
2017-05-18T08:23:03.825Z,44.59
2017-05-18T08:24:26.053Z,45.45
2017-05-18T08:25:50.311Z,46.59
2017-05-18T08:27:12.877Z,46.11
2017-05-18T08:28:35.883Z,46.5
2017-05-18T08:29:57.755Z,46.98
2017-05-18T08:31:20.397Z,46.5
2017-05-18T08:32:42.578Z,45.52
2017-05-18T08:34:07.145Z,47.08
2017-05-18T08:35:29.994Z,46.78
2017-05-18T08:36:53.317Z,47.76
2017-05-18T08:38:26.717Z,47.27
2017-05-18T08:39:49.764Z,46.98
2017-05-18T08:41:12.623Z,47.37
2017-05-18T08:42:34.208Z,47.76
2017-05-18T08:43:56.636Z,46.3
2017-05-18T08:45:19.269Z,45.14
2017-05-18T08:46:40.869Z,46.4
2017-05-18T08:48:03.507Z,47.86
2017-05-18T08:49:26.648Z,46.69
2017-05-18T08:50:49.476Z,47.39
2017-05-18T08:52:13.706Z,46.51
2017-05-18T08:53:35.890Z,47.2
2017-05-18T08:54:58.342Z,45.74
2017-05-18T08:56:21.356Z,46.42
2017-05-18T08:57:43.587Z,46.61
2017-05-18T08:59:05.855Z,45.35
2017-05-18T09:00:28.487Z,46.42
2017-05-18T09:01:50.832Z,46.32
2017-05-18T09:03:13.507Z,45.74
2017-05-18T09:04:35.830Z,47.13
2017-05-18T09:05:59.653Z,46.44
2017-05-18T09:08:55.521Z,44.49
2017-05-18T09:10:18.137Z,45.28
2017-05-18T09:11:44.518Z,45.67
2017-05-18T09:13:07.019Z,46.83
2017-05-18T09:14:29.852Z,46.47
2017-05-18T09:15:52.108Z,46.66
2017-05-18T09:17:15.829Z,45
2017-05-18T09:18:39.121Z,45.47
2017-05-18T09:20:01.658Z,44.62
2017-05-18T09:21:24.626Z,44.44
2017-05-18T09:22:48.371Z,45.42
2017-05-18T09:24:11.529Z,44.07
2017-05-18T09:25:35.026Z,43
2017-05-18T09:26:58.138Z,42.41
2017-05-18T09:28:21.980Z,43.39
2017-05-18T09:29:48.560Z,42.69
2017-05-18T09:31:10.724Z,44.64
2017-05-18T09:32:32.994Z,43.95
2017-05-18T09:33:55.565Z,43.85
2017-05-18T09:35:19.446Z,43.27
2017-05-18T09:36:44.444Z,44.05
2017-05-18T09:38:07.076Z,43.57
2017-05-18T09:39:29.758Z,43.27
2017-05-18T09:40:52.525Z,42.32
2017-05-18T09:42:14.827Z,41.75
2017-05-18T09:43:37.812Z,42.05
2017-05-18T09:45:00.906Z,41.95
2017-05-18T09:46:23.130Z,41.09
2017-05-18T09:47:44.937Z,41.56
2017-05-18T09:49:08.274Z,41.46
2017-05-18T09:50:31.170Z,42.44
2017-05-18T09:51:54.948Z,41.95
2017-05-18T09:53:28.138Z,41.19
2017-05-18T09:54:50.345Z,40.31
2017-05-18T09:56:12.268Z,41.09
2017-05-18T09:57:33.875Z,41.77
2017-05-18T09:58:55.559Z,42.24
2017-05-18T10:00:17.808Z,42.61
2017-05-18T10:01:40.564Z,42.83
2017-05-18T10:03:02.405Z,41.75
2017-05-18T10:04:24.567Z,41.63
2017-05-18T10:05:46.176Z,41.36
2017-05-18T10:07:08.316Z,42.24
2017-05-18T10:08:30.797Z,41.75
2017-05-18T10:09:53.011Z,42.41
2017-05-18T10:11:15.198Z,42.69
2017-05-18T10:12:37.498Z,42.69
2017-05-18T10:13:59.520Z,43.57
2017-05-18T10:15:20.734Z,42.88
2017-05-18T10:16:41.989Z,43.57
2017-05-18T10:18:03.686Z,43.66
2017-05-18T10:19:25.859Z,44.62
2017-05-18T10:20:47.407Z,45.37
2017-05-18T10:22:08.940Z,46.44
2017-05-18T10:23:31.417Z,47.03
2017-05-18T10:24:53.890Z,47.42
2017-05-18T10:26:16.383Z,46.34
2017-05-18T10:27:38.551Z,46.83
2017-05-18T10:29:00.670Z,47.22
2017-05-18T10:30:22.840Z,46.86
2017-05-18T10:31:44.686Z,47.32
2017-05-18T10:33:06.868Z,47.8
2017-05-18T10:34:28.999Z,46.76
2017-05-18T10:35:50.849Z,46.47
2017-05-18T10:37:12.380Z,45.51
2017-05-18T10:38:34.855Z,45.29
2017-05-18T10:39:56.493Z,45.29
2017-05-18T10:41:19.060Z,47.05
2017-05-18T10:42:41.535Z,46.76
2017-05-18T10:44:02.759Z,45.42
2017-05-18T10:45:25.577Z,45.32
2017-05-18T10:46:46.795Z,43.08
2017-05-18T10:48:08.338Z,45.59
2017-05-18T10:49:30.498Z,46.93
2017-05-18T10:50:52.975Z,47.39
2017-05-18T10:52:15.205Z,47.1
2017-05-18T10:53:37.378Z,47.39
2017-05-18T10:54:59.551Z,46.91
2017-05-18T10:56:21.379Z,48.05
2017-05-18T10:57:43.607Z,46.4
2017-05-18T10:59:05.818Z,47.27
2017-05-18T11:00:28.299Z,46.4
2017-05-18T11:01:50.461Z,48.83
2017-05-18T11:03:13.097Z,50.58
2017-05-18T11:04:35.278Z,48.9
2017-05-18T11:05:57.159Z,49.19
2017-05-18T11:07:18.985Z,47.86
2017-05-18T11:08:40.527Z,47.69
2017-05-18T11:10:02.071Z,46.81
2017-05-18T11:11:24.230Z,46.15
2017-05-18T11:12:46.688Z,43.54
2017-05-18T11:14:08.539Z,45.42
2017-05-18T11:15:31.044Z,43.95
2017-05-18T11:16:52.898Z,45.61
2017-05-18T11:18:14.990Z,43.19
2017-05-18T11:19:37.168Z,43.59
2017-05-18T11:20:58.387Z,45.56
2017-05-18T11:22:19.742Z,45.42
2017-05-18T11:23:41.961Z,48.8
2017-05-18T11:25:03.521Z,50.8
2017-05-18T11:26:25.829Z,51.77
2017-05-18T11:27:47.358Z,50.48
2017-05-18T11:29:09.832Z,51.72
2017-05-18T11:30:31.984Z,52.86
2017-05-18T11:31:53.850Z,52.37
2017-05-18T11:33:16.011Z,50.26
2017-05-18T11:34:37.528Z,49.97
2017-05-18T11:35:59.422Z,51.04
2017-05-18T11:37:20.421Z,51.82
2017-05-18T11:38:42.603Z,52.11
2017-05-18T11:40:05.547Z,53.45
2017-05-18T11:41:27.700Z,54.1
2017-05-18T11:42:49.679Z,54.78
2017-05-18T11:44:11.628Z,55.46
2017-05-18T11:45:33.885Z,57.18
2017-05-18T11:46:55.878Z,55.82
2017-05-18T11:48:17.749Z,56.28
2017-05-18T11:49:38.655Z,56.45
2017-05-18T11:51:00.795Z,56.74
2017-05-18T11:52:22.649Z,56.74
2017-05-18T11:53:44.509Z,58
2017-05-18T11:55:06.686Z,57.8
2017-05-18T11:56:29.232Z,57.48
2017-05-18T11:57:51.419Z,57.68
2017-05-18T11:59:13.901Z,59.42
2017-05-18T12:00:35.749Z,58.36
2017-05-18T12:01:58.173Z,56.45
2017-05-18T12:03:20.020Z,58.03
2017-05-18T12:04:42.779Z,55.5
2017-05-18T12:06:04.928Z,55.41
2017-05-18T12:07:27.191Z,54.72
2017-05-18T12:08:49.389Z,56.28
2017-05-18T12:10:11.358Z,55.6
2017-05-18T12:11:33.207Z,56.79
2017-05-18T12:12:55.642Z,55.43
2017-05-18T12:14:18.118Z,56.6
2017-05-18T12:15:40.106Z,56.6
2017-05-18T12:17:02.368Z,56.67
2017-05-18T12:18:24.839Z,58.41
2017-05-18T12:19:46.780Z,58.97
2017-05-18T12:21:08.702Z,59.03
2017-05-18T12:22:31.314Z,61.55
2017-05-18T12:23:53.501Z,61.65
2017-05-18T12:25:15.961Z,59.13
2017-05-18T12:26:37.809Z,56.74
2017-05-18T12:28:00.024Z,56.09
2017-05-18T12:29:22.818Z,55.31
2017-05-18T12:30:45.012Z,56.37
2017-05-18T12:32:06.869Z,58.03
2017-05-18T12:33:28.717Z,58.77
2017-05-18T12:34:50.936Z,57.87
2017-05-18T12:36:12.892Z,58.65
2017-05-18T12:37:35.518Z,59.49
2017-05-18T12:38:57.788Z,61.07
2017-05-18T12:40:20.515Z,57.19
2017-05-18T12:41:42.687Z,56.15
2017-05-18T12:43:04.520Z,55.41
2017-05-18T12:44:26.345Z,56.74
2017-05-18T12:45:48.522Z,56.83
2017-05-18T12:47:10.388Z,57.58
2017-05-18T12:48:32.897Z,58.06
2017-05-18T12:49:54.259Z,58.91
2017-05-18T12:51:16.378Z,58.23
2017-05-18T12:52:38.548Z,58.91
2017-05-18T12:54:00.721Z,59.2
2017-05-18T12:55:21.948Z,58.04
2017-05-18T12:56:44.158Z,58.59
2017-05-18T12:58:06.009Z,59.63
2017-05-18T12:59:27.855Z,58.49
2017-05-18T13:00:50.071Z,58.04
2017-05-18T13:02:12.247Z,59.23
2017-05-18T13:03:34.106Z,56.54
2017-05-18T13:04:56.616Z,55.99
2017-05-18T13:06:19.098Z,54.92
2017-05-18T13:07:41.896Z,54.72
2017-05-18T13:09:04.066Z,55.31
2017-05-18T13:10:25.962Z,56.7
2017-05-18T13:11:48.150Z,54.27
2017-05-18T13:13:10.294Z,56.7
2017-05-18T13:14:31.879Z,52.64
2017-05-18T13:15:53.074Z,54.27
2017-05-18T13:17:14.934Z,53.3
2017-05-18T13:18:37.787Z,52.62
2017-05-18T13:20:00.070Z,53.81
2017-05-18T13:21:22.238Z,53.61
2017-05-18T13:22:44.218Z,54.39
2017-05-18T13:24:07.046Z,54.2
2017-05-18T13:25:29.211Z,55.33
2017-05-18T13:26:51.697Z,55.93
2017-05-18T13:28:14.251Z,56.41
2017-05-18T13:29:37.057Z,55.57
2017-05-18T13:30:59.626Z,55.41
2017-05-18T13:32:21.307Z,54.94
2017-05-18T13:33:43.562Z,52.64
2017-05-18T13:35:05.519Z,52.64
2017-05-18T13:36:28.058Z,53.06
2017-05-18T13:37:50.706Z,53.39
2017-05-18T13:39:12.561Z,53.69
2017-05-18T13:40:34.389Z,54.41
2017-05-18T13:41:56.924Z,54.46
2017-05-18T13:43:19.149Z,51.18
2017-05-18T13:44:40.708Z,52.19
2017-05-18T13:46:02.860Z,52.76
2017-05-18T13:47:25.088Z,51.87
2017-05-18T13:48:47.357Z,52.74
2017-05-18T13:50:08.586Z,53.69
2017-05-18T13:51:31.159Z,53.17
2017-05-18T13:52:53.098Z,53.47
2017-05-18T13:54:15.089Z,53.78
2017-05-18T13:55:36.626Z,53.78
2017-05-18T13:56:58.726Z,54.27
2017-05-18T13:58:20.889Z,53.95
2017-05-18T13:59:43.064Z,53.66
2017-05-18T14:01:04.923Z,52.4
2017-05-18T14:02:27.102Z,53.37
2017-05-18T14:03:49.268Z,55.41
2017-05-18T14:05:11.459Z,57.42
2017-05-18T14:06:33.678Z,58.39
2017-05-18T14:07:56.097Z,58.3
2017-05-18T14:09:18.268Z,58.04
2017-05-18T14:10:40.823Z,58.55
2017-05-18T14:12:03.020Z,60.27
2017-05-18T14:13:25.488Z,62.04
2017-05-18T14:14:47.358Z,60.21
2017-05-18T14:16:09.532Z,60.33
2017-05-18T14:17:31.720Z,60.3
2017-05-18T14:18:54.218Z,61.21
2017-05-18T14:20:16.432Z,60.98
2017-05-18T14:21:37.970Z,60.72
2017-05-18T14:23:00.263Z,58.39
2017-05-18T14:24:22.437Z,57.84
2017-05-18T14:25:44.298Z,56.51
2017-05-18T14:27:06.484Z,57.29
2017-05-18T14:28:28.323Z,58.06
2017-05-18T14:29:50.231Z,59.78
2017-05-18T14:31:11.850Z,59.75
2017-05-18T14:32:34.029Z,59
2017-05-18T14:33:56.518Z,59.91
2017-05-18T14:35:18.755Z,59.56
2017-05-18T14:36:40.918Z,62.92
2017-05-18T14:38:03.098Z,62.37
2017-05-18T14:39:25.037Z,61.63
2017-05-18T14:40:47.136Z,62.11
2017-05-18T14:42:08.998Z,62.69
2017-05-18T14:43:31.175Z,63.56
2017-05-18T14:44:53.042Z,62.3
2017-05-18T14:46:15.668Z,62.3
2017-05-18T14:47:37.559Z,63.76
2017-05-18T14:48:59.417Z,64.11
2017-05-18T14:50:21.365Z,65.3
2017-05-18T14:51:43.602Z,64.82
2017-05-18T14:53:06.236Z,65.43
2017-05-18T14:54:27.133Z,65.2
2017-05-18T14:55:48.978Z,64.85
2017-05-18T14:57:11.452Z,62.95
2017-05-18T14:58:33.654Z,64.21
2017-05-18T14:59:55.848Z,62.95
2017-05-18T15:01:17.835Z,63.24
2017-05-18T15:02:40.628Z,65.17
2017-05-18T15:04:02.810Z,66.4
2017-05-18T15:05:24.370Z,67.24
2017-05-18T15:06:46.269Z,67.4
2017-05-18T15:08:08.766Z,66.85
2017-05-18T15:09:31.310Z,67.52
2017-05-18T15:10:53.864Z,67.49
2017-05-18T15:12:16.039Z,67.01
2017-05-18T15:13:38.559Z,67.04
2017-05-18T15:15:00.429Z,65.5
2017-05-18T15:16:22.923Z,65.34
2017-05-18T15:17:44.519Z,65.63
2017-05-18T15:19:07.035Z,66.66
2017-05-18T15:20:29.234Z,69.42
2017-05-18T15:21:51.821Z,70.06
2017-05-18T15:23:14.121Z,69.58
2017-05-18T15:24:37.117Z,69.58
2017-05-18T15:25:58.979Z,70.74
2017-05-18T15:27:21.207Z,70.22
2017-05-18T15:28:43.389Z,70.13
2017-05-18T15:30:06.349Z,69.78
2017-05-18T15:31:28.179Z,69.87
2017-05-18T15:32:50.648Z,70.16
2017-05-18T15:34:12.511Z,69.2
2017-05-18T15:35:34.998Z,68.65
2017-05-18T15:36:57.256Z,68.65
2017-05-18T15:38:19.140Z,71.42
2017-05-18T15:39:41.633Z,72.83
2017-05-18T15:41:03.800Z,73.08
2017-05-18T15:42:26.090Z,73.53
2017-05-18T15:43:47.996Z,73.14
2017-05-18T15:45:09.596Z,74.01
2017-05-18T15:46:31.477Z,73.72
2017-05-18T15:47:53.331Z,74.74
2017-05-18T15:49:15.171Z,74.74
2017-05-18T15:50:37.419Z,75.32
2017-05-18T15:51:59.609Z,75.61
2017-05-18T15:53:21.249Z,75.71
2017-05-18T15:54:43.427Z,76.67
2017-05-18T15:56:05.599Z,79.56
2017-05-18T15:57:27.763Z,79.43
2017-05-18T15:58:49.626Z,80.83
2017-05-18T16:00:11.922Z,84.39
2017-05-18T16:01:33.810Z,84.16
2017-05-18T16:02:55.980Z,84.77
2017-05-18T16:04:18.149Z,85.98
2017-05-18T16:05:40.331Z,87.81
2017-05-18T16:07:02.509Z,92.38
2017-05-18T16:08:25.009Z,95.31
2017-05-18T16:09:47.288Z,94.35
2017-05-18T16:11:09.924Z,96.61
2017-05-18T16:12:31.770Z,99.99
2017-05-18T16:13:54.205Z,99.99
2017-05-18T16:15:16.740Z,99.99
2017-05-18T16:16:39.226Z,98.82
2017-05-18T16:18:01.088Z,99.78
2017-05-18T16:19:22.972Z,98.86
2017-05-18T16:20:45.164Z,99.99
2017-05-18T16:22:07.692Z,99.99
2017-05-18T16:23:29.889Z,99.99
2017-05-18T16:24:52.100Z,99.99
2017-05-18T16:26:14.611Z,99.99
2017-05-18T16:27:37.100Z,99.99
2017-05-18T16:28:59.620Z,99.99
2017-05-18T16:30:22.178Z,99.99
2017-05-18T16:31:44.352Z,99.99
2017-05-18T16:33:06.856Z,99.99
2017-05-18T16:34:29.484Z,99.99
2017-05-18T16:35:52.798Z,99.99
2017-05-18T16:37:14.983Z,99.99
2017-05-18T16:38:37.187Z,99.99
2017-05-18T16:39:58.742Z,99.99
2017-05-18T16:41:21.640Z,99.99
2017-05-18T16:42:43.519Z,99.99
2017-05-18T16:44:05.701Z,99.99
2017-05-18T16:45:27.551Z,99.99
2017-05-18T16:46:50.098Z,99.99
2017-05-18T16:48:12.292Z,99.99
2017-05-18T16:49:34.212Z,99.99
2017-05-18T16:50:56.401Z,99.99
2017-05-18T16:52:18.634Z,99.99
2017-05-18T16:53:41.135Z,99.99
2017-05-18T16:55:03.667Z,99.99
2017-05-18T16:56:26.187Z,99.99
2017-05-18T16:57:48.032Z,99.99
2017-05-18T16:59:10.057Z,99.99
2017-05-18T17:00:31.630Z,99.99
2017-05-18T17:01:53.494Z,99.99
2017-05-18T17:03:16.069Z,99.99
2017-05-18T17:04:38.043Z,99.99
2017-05-18T17:06:00.525Z,99.99
2017-05-18T17:07:22.723Z,99.99
2017-05-18T17:08:45.330Z,99.99
2017-05-18T17:10:07.513Z,99.99
2017-05-18T17:11:30.002Z,99.99
2017-05-18T17:12:51.874Z,99.99
2017-05-18T17:14:14.381Z,99.99
2017-05-18T17:15:36.354Z,99.99
2017-05-18T17:16:58.702Z,99.99
2017-05-18T17:18:20.322Z,99.99
2017-05-18T17:19:42.518Z,99.99
2017-05-18T17:21:04.741Z,99.99
2017-05-18T17:22:26.955Z,99.99
2017-05-18T17:23:48.631Z,99.99
2017-05-18T17:25:10.206Z,99.99
2017-05-18T17:26:32.870Z,99.99
2017-05-18T17:27:55.394Z,99.99
2017-05-18T17:29:17.903Z,99.99
2017-05-18T17:30:40.722Z,99.99
2017-05-18T17:32:02.935Z,99.99
2017-05-18T17:33:25.442Z,99.99
2017-05-18T17:34:47.940Z,99.99
2017-05-18T17:36:10.789Z,99.99
2017-05-18T17:37:32.729Z,99.99
2017-05-18T17:38:54.727Z,99.99
2017-05-18T17:40:17.235Z,99.99
2017-05-18T17:41:40.082Z,99.99
2017-05-18T17:43:02.338Z,99.99